createdAt,value
2023-04-27T00:01:50.809Z,16.58
2023-04-27T00:05:37.198Z,24.63
2023-04-27T00:09:19.276Z,17.08
2023-04-27T00:13:01.727Z,9.85
2023-04-27T00:16:43.683Z,8.95
2023-04-27T00:20:25.664Z,10.00
2023-04-27T00:24:07.876Z,12.13
2023-04-27T00:27:49.784Z,8.00
2023-04-27T00:31:31.644Z,5.07
2023-04-27T00:35:13.518Z,7.70
2023-04-27T00:38:55.683Z,6.03
2023-04-27T00:42:37.712Z,7.07
2023-04-27T00:46:19.975Z,6.32
2023-04-27T00:50:01.996Z,5.65
2023-04-27T00:53:43.876Z,5.65
2023-04-27T00:57:25.793Z,8.32
2023-04-27T01:01:07.818Z,5.97
2023-04-27T01:04:50.694Z,5.32
2023-04-27T01:08:32.561Z,5.30
2023-04-27T01:12:14.394Z,4.38
2023-04-27T01:15:56.240Z,5.97
2023-04-27T01:19:38.294Z,5.05
2023-04-27T01:23:20.170Z,5.65
2023-04-27T01:27:02.683Z,6.13
2023-04-27T01:30:44.537Z,5.32
2023-04-27T01:34:26.802Z,7.65
2023-04-27T01:38:08.773Z,6.55
2023-04-27T01:41:50.927Z,9.23
2023-04-27T01:45:32.763Z,8.23
2023-04-27T01:49:14.905Z,5.05
2023-04-27T01:52:57.145Z,5.20
2023-04-27T01:56:39.008Z,9.02
2023-04-27T02:00:21.394Z,7.10
2023-04-27T02:04:04.417Z,5.78
2023-04-27T02:07:46.440Z,8.93
2023-04-27T02:11:28.308Z,5.90
2023-04-27T02:15:10.442Z,7.15
2023-04-27T02:18:53.804Z,6.65
2023-04-27T02:22:35.667Z,6.60
2023-04-27T02:26:19.542Z,6.50
2023-04-27T02:30:05.315Z,7.18
2023-04-27T02:33:47.760Z,5.88
2023-04-27T02:37:29.659Z,6.07
2023-04-27T02:41:11.554Z,7.72
2023-04-27T02:44:53.392Z,8.10
2023-04-27T02:48:35.299Z,7.90
2023-04-27T02:52:17.186Z,8.80
2023-04-27T02:55:59.301Z,6.00
2023-04-27T02:59:41.180Z,6.32
2023-04-27T03:03:24.185Z,7.28
2023-04-27T03:07:06.468Z,5.88
2023-04-27T03:10:48.378Z,5.03
2023-04-27T03:14:30.272Z,6.57
2023-04-27T03:18:12.092Z,5.63
2023-04-27T03:21:53.921Z,8.63
2023-04-27T03:25:36.008Z,5.82
2023-04-27T03:29:18.285Z,7.70
2023-04-27T03:33:00.373Z,7.72
2023-04-27T03:36:42.281Z,7.28
2023-04-27T03:40:24.296Z,5.85
2023-04-27T03:44:07.106Z,8.98
2023-04-27T03:47:49.075Z,8.77
2023-04-27T03:51:34.628Z,8.77
2023-04-27T03:55:16.581Z,8.85
2023-04-27T03:58:58.486Z,8.88
2023-04-27T04:02:40.782Z,8.93
2023-04-27T04:06:22.787Z,8.10
2023-04-27T04:10:05.188Z,7.43
2023-04-27T04:13:47.493Z,10.20
2023-04-27T04:17:29.438Z,6.53
2023-04-27T04:21:11.355Z,7.82
2023-04-27T04:24:53.720Z,8.80
2023-04-27T04:28:35.875Z,12.10
2023-04-27T04:32:19.486Z,10.60
2023-04-27T04:36:04.475Z,9.13
2023-04-27T04:39:46.448Z,8.63
2023-04-27T04:43:28.557Z,9.68
2023-04-27T04:47:10.836Z,10.73
2023-04-27T04:50:52.832Z,10.82
2023-04-27T04:54:34.726Z,9.90
2023-04-27T04:58:16.609Z,9.43
2023-04-27T05:01:58.627Z,8.70
2023-04-27T05:05:40.998Z,7.57
2023-04-27T05:09:23.125Z,10.57
2023-04-27T05:13:07.104Z,9.43
2023-04-27T05:16:49.573Z,8.25
2023-04-27T05:20:34.482Z,11.90
2023-04-27T05:24:17.268Z,11.52
2023-04-27T05:27:59.351Z,10.50
2023-04-27T05:31:41.246Z,9.98
2023-04-27T05:35:23.166Z,7.78
2023-04-27T05:39:05.156Z,10.18
2023-04-27T05:42:47.701Z,9.95
2023-04-27T05:46:29.658Z,13.68
2023-04-27T05:50:11.810Z,15.68
2023-04-27T05:53:55.441Z,10.88
2023-04-27T05:57:37.383Z,10.52
2023-04-27T06:01:19.290Z,13.52
2023-04-27T06:05:01.734Z,15.23
2023-04-27T06:08:43.764Z,10.82
2023-04-27T06:12:25.688Z,11.85
2023-04-27T06:16:08.258Z,12.10
2023-04-27T06:19:50.198Z,11.23
2023-04-27T06:23:32.071Z,12.50
2023-04-27T06:27:13.974Z,13.60
2023-04-27T06:30:55.950Z,11.45
2023-04-27T06:34:37.873Z,10.52
2023-04-27T06:38:19.766Z,11.55
2023-04-27T06:42:02.054Z,10.75
2023-04-27T06:45:43.957Z,13.48
2023-04-27T06:49:26.048Z,9.82
2023-04-27T06:53:08.388Z,10.63
2023-04-27T06:56:50.352Z,10.13
2023-04-27T07:00:32.448Z,12.63
2023-04-27T07:04:14.502Z,13.82
2023-04-27T07:07:56.446Z,10.75
2023-04-27T07:11:38.359Z,11.85
2023-04-27T07:15:22.394Z,13.38
2023-04-27T07:19:04.404Z,11.38
2023-04-27T07:22:46.516Z,9.27
2023-04-27T07:26:28.423Z,11.50
2023-04-27T07:30:13.324Z,10.75
2023-04-27T07:33:55.341Z,10.40
2023-04-27T07:37:38.390Z,11.68
2023-04-27T07:41:20.354Z,10.40
2023-04-27T07:45:02.360Z,9.40
2023-04-27T07:48:44.984Z,14.25
2023-04-27T07:52:26.891Z,9.70
2023-04-27T07:56:10.204Z,11.10
2023-04-27T07:59:52.096Z,11.10
2023-04-27T08:03:34.238Z,10.32
2023-04-27T08:07:18.095Z,12.98
2023-04-27T08:11:00.260Z,11.63
2023-04-27T08:14:42.592Z,12.35
2023-04-27T08:18:27.256Z,9.65
2023-04-27T08:22:09.299Z,8.80
2023-04-27T08:25:51.341Z,11.23
2023-04-27T08:29:33.628Z,9.90
2023-04-27T08:33:15.980Z,11.50
2023-04-27T08:36:58.148Z,11.10
2023-04-27T08:40:44.123Z,9.20
2023-04-27T08:44:26.318Z,10.90
2023-04-27T08:48:09.061Z,10.95
2023-04-27T08:51:50.951Z,11.02
2023-04-27T08:55:33.108Z,10.65
2023-04-27T08:59:16.914Z,13.07
2023-04-27T09:03:04.138Z,7.93
2023-04-27T09:06:46.532Z,11.00
2023-04-27T09:10:31.452Z,7.50
2023-04-27T09:14:22.119Z,8.65
2023-04-27T09:18:04.113Z,8.13
2023-04-27T09:21:48.268Z,9.73
2023-04-27T09:25:32.192Z,7.78
2023-04-27T09:29:14.392Z,7.35
2023-04-27T09:33:02.040Z,8.50
2023-04-27T09:36:44.379Z,8.23
2023-04-27T09:40:29.709Z,6.72
2023-04-27T09:44:11.629Z,8.05
2023-04-27T09:47:54.151Z,7.40
2023-04-27T09:51:36.094Z,7.35
2023-04-27T09:55:25.768Z,11.65
2023-04-27T09:59:55.468Z,7.45
2023-04-27T10:03:51.836Z,7.72
2023-04-27T10:07:35.629Z,10.02
2023-04-27T10:11:19.406Z,10.38
2023-04-27T10:15:15.500Z,6.70
2023-04-27T10:18:57.664Z,9.05
2023-04-27T10:22:44.859Z,9.15
2023-04-27T10:26:28.180Z,7.78
2023-04-27T10:30:14.085Z,13.13
2023-04-27T10:34:10.025Z,8.93
2023-04-27T10:37:53.217Z,8.32
2023-04-27T10:41:36.381Z,8.20
2023-04-27T10:45:31.226Z,9.60
2023-04-27T10:49:16.356Z,9.80
2023-04-27T10:53:05.629Z,8.77
2023-04-27T10:56:47.573Z,8.57
2023-04-27T11:00:33.517Z,10.07
2023-04-27T11:04:17.512Z,11.53
2023-04-27T11:08:11.012Z,9.77
2023-04-27T11:11:53.437Z,11.73
2023-04-27T11:15:50.500Z,8.63
2023-04-27T11:23:29.024Z,8.63
2023-04-27T11:27:10.966Z,9.43
2023-04-27T11:30:59.689Z,8.35
2023-04-27T11:34:50.461Z,9.40
2023-04-27T11:38:36.062Z,7.97
2023-04-27T11:42:26.491Z,8.02
2023-04-27T11:46:10.952Z,10.65
2023-04-27T11:49:55.205Z,9.43
2023-04-27T11:53:38.827Z,10.07
2023-04-27T11:57:29.003Z,11.68
2023-04-27T12:01:12.095Z,10.98
2023-04-27T12:04:54.178Z,9.25
2023-04-27T12:08:36.332Z,12.88
2023-04-27T12:12:18.455Z,10.90
2023-04-27T12:16:01.083Z,11.95
2023-04-27T12:19:43.220Z,11.63
2023-04-27T12:23:25.212Z,10.80
2023-04-27T12:27:07.692Z,11.35
2023-04-27T12:30:49.935Z,11.60
2023-04-27T12:34:33.176Z,11.98
2023-04-27T12:38:15.148Z,11.55
2023-04-27T12:41:58.343Z,10.77
2023-04-27T12:45:40.275Z,10.73
2023-04-27T12:49:22.340Z,10.90
2023-04-27T12:53:04.266Z,13.18
2023-04-27T12:56:47.122Z,13.18
2023-04-27T13:00:29.946Z,14.10
2023-04-27T13:04:19.407Z,14.93
2023-04-27T13:08:02.716Z,15.93
2023-04-27T13:11:44.898Z,12.75
2023-04-27T13:15:26.910Z,12.75
2023-04-27T13:19:08.848Z,13.38
2023-04-27T13:22:50.806Z,14.30
2023-04-27T13:26:32.829Z,16.70
2023-04-27T13:30:14.786Z,15.25
2023-04-27T13:33:56.737Z,12.90
2023-04-27T13:37:42.383Z,15.75
2023-04-27T13:41:24.429Z,12.80
2023-04-27T13:45:07.132Z,14.98
2023-04-27T13:48:49.042Z,13.82
2023-04-27T13:52:31.149Z,13.27
2023-04-27T13:56:13.096Z,12.90
2023-04-27T13:59:54.978Z,14.75
2023-04-27T14:03:37.054Z,11.68
2023-04-27T14:07:20.121Z,12.70
2023-04-27T14:11:02.015Z,10.73
2023-04-27T14:14:43.938Z,12.93
2023-04-27T14:18:32.180Z,12.40
2023-04-27T14:22:14.700Z,11.05
2023-04-27T14:25:56.914Z,13.35
2023-04-27T14:29:38.848Z,12.32
2023-04-27T14:33:20.762Z,9.60
2023-04-27T14:37:02.663Z,11.43
2023-04-27T14:40:44.693Z,8.95
2023-04-27T14:44:26.855Z,11.00
2023-04-27T14:48:08.871Z,10.75
2023-04-27T14:51:50.813Z,9.05
2023-04-27T14:55:32.755Z,8.27
2023-04-27T14:59:14.830Z,8.73
2023-04-27T15:02:57.099Z,10.73
2023-04-27T15:06:39.438Z,11.18
2023-04-27T15:10:21.568Z,9.55
2023-04-27T15:14:03.474Z,11.48
2023-04-27T15:17:45.550Z,10.20
2023-04-27T15:21:27.507Z,8.88
2023-04-27T15:25:09.708Z,10.70
2023-04-27T15:28:51.955Z,10.63
2023-04-27T15:32:34.051Z,10.30
2023-04-27T15:36:17.510Z,10.90
2023-04-27T15:39:59.406Z,10.38
2023-04-27T15:43:41.560Z,9.18
2023-04-27T15:47:23.487Z,7.53
2023-04-27T15:51:09.521Z,8.35
2023-04-27T15:58:33.974Z,8.05
2023-04-27T16:02:16.102Z,7.35
2023-04-27T16:05:58.130Z,8.75
2023-04-27T16:09:40.481Z,7.63
2023-04-27T16:13:23.015Z,6.15
2023-04-27T16:17:04.940Z,6.55
2023-04-27T16:20:47.457Z,4.60
2023-04-27T16:24:31.392Z,5.32
2023-04-27T16:28:13.382Z,4.60
2023-04-27T16:31:55.479Z,4.75
2023-04-27T16:35:37.410Z,5.05
2023-04-27T16:39:19.484Z,4.00
2023-04-27T16:43:01.421Z,4.30
2023-04-27T16:46:43.432Z,5.28
2023-04-27T16:50:25.729Z,4.60
2023-04-27T16:54:07.696Z,5.50
2023-04-27T16:57:50.200Z,5.03
2023-04-27T17:01:32.170Z,5.40
2023-04-27T17:05:14.244Z,4.93
2023-04-27T17:08:57.640Z,4.68
2023-04-27T17:12:40.092Z,4.95
2023-04-27T17:16:22.305Z,4.18
2023-04-27T17:20:06.459Z,3.33
2023-04-27T17:23:50.689Z,4.25
2023-04-27T17:27:32.653Z,4.57
2023-04-27T17:31:15.301Z,4.03
2023-04-27T17:34:57.637Z,3.53
2023-04-27T17:38:39.560Z,3.65
2023-04-27T17:42:21.601Z,4.75
2023-04-27T17:46:09.699Z,3.20
2023-04-27T17:49:51.746Z,7.68
2023-04-27T17:53:33.706Z,3.22
2023-04-27T17:57:15.732Z,3.58
2023-04-27T18:00:57.731Z,3.08
2023-04-27T18:04:39.708Z,3.00
2023-04-27T18:08:21.667Z,2.15
2023-04-27T18:12:10.766Z,2.55
2023-04-27T18:15:53.051Z,2.15
2023-04-27T18:19:34.955Z,1.65
2023-04-27T18:23:16.896Z,2.50
2023-04-27T18:27:00.043Z,1.98
2023-04-27T18:30:42.116Z,2.20
2023-04-27T18:34:24.089Z,2.25
2023-04-27T18:38:06.223Z,1.70
2023-04-27T18:41:48.343Z,1.90
2023-04-27T18:45:30.918Z,1.55
2023-04-27T18:49:13.189Z,2.72
2023-04-27T18:52:55.189Z,2.00
2023-04-27T18:56:37.181Z,2.03
2023-04-27T19:00:19.293Z,2.45
2023-04-27T19:04:01.765Z,3.33
2023-04-27T19:07:43.917Z,1.95
2023-04-27T19:11:26.129Z,1.70
2023-04-27T19:15:08.434Z,1.73
2023-04-27T19:18:50.511Z,1.75
2023-04-27T19:22:36.794Z,1.50
2023-04-27T19:26:18.695Z,2.95
2023-04-27T19:30:02.512Z,2.78
2023-04-27T19:33:47.278Z,2.10
2023-04-27T19:37:37.126Z,2.17
2023-04-27T19:41:19.028Z,1.70
2023-04-27T19:45:01.137Z,2.05
2023-04-27T19:48:43.085Z,2.10
2023-04-27T19:52:28.426Z,2.58
2023-04-27T19:56:10.323Z,1.60
2023-04-27T19:59:52.208Z,1.30
2023-04-27T20:03:35.808Z,1.15
2023-04-27T20:07:17.853Z,1.90
2023-04-27T20:10:59.733Z,1.60
2023-04-27T20:14:42.593Z,1.10
2023-04-27T20:18:25.701Z,1.50
2023-04-27T20:22:07.653Z,3.00
2023-04-27T20:25:49.624Z,1.13
2023-04-27T20:29:32.588Z,1.05
2023-04-27T20:33:14.579Z,1.48
2023-04-27T20:36:57.915Z,2.90
2023-04-27T20:40:40.002Z,1.35
2023-04-27T20:44:22.572Z,1.65
2023-04-27T20:48:07.988Z,1.30
2023-04-27T20:51:50.042Z,1.60
2023-04-27T20:55:32.075Z,2.47
2023-04-27T20:59:13.968Z,1.75
2023-04-27T21:02:56.008Z,2.70
2023-04-27T21:06:38.455Z,3.25
2023-04-27T21:10:20.425Z,2.50
2023-04-27T21:14:02.764Z,2.55
2023-04-27T21:17:44.772Z,3.50
2023-04-27T21:21:27.051Z,3.53
2023-04-27T21:25:09.262Z,3.78
2023-04-27T21:28:52.190Z,3.80
2023-04-27T21:32:34.104Z,4.57
2023-04-27T21:36:16.245Z,4.53
2023-04-27T21:39:58.155Z,7.57
2023-04-27T21:43:42.109Z,4.82
2023-04-27T21:47:24.136Z,6.20
2023-04-27T21:51:06.120Z,6.82
2023-04-27T21:54:48.334Z,6.68
2023-04-27T21:58:30.304Z,6.35
2023-04-27T22:02:12.381Z,7.53
2023-04-27T22:05:57.541Z,9.90
2023-04-27T22:09:39.449Z,7.68
2023-04-27T22:13:21.500Z,6.15
2023-04-27T22:17:03.533Z,5.93
2023-04-27T22:20:46.067Z,7.13
2023-04-27T22:24:27.962Z,5.72
2023-04-27T22:28:10.562Z,5.82
2023-04-27T22:31:52.512Z,5.10
2023-04-27T22:35:35.020Z,6.53
2023-04-27T22:39:16.991Z,6.75
2023-04-27T22:42:58.898Z,6.18
2023-04-27T22:46:43.291Z,6.30
2023-04-27T22:50:25.230Z,6.32
2023-04-27T22:54:07.169Z,5.13
2023-04-27T22:57:50.079Z,6.28
2023-04-27T23:01:32.110Z,5.03
2023-04-27T23:05:14.424Z,5.28
2023-04-27T23:08:56.799Z,6.78
2023-04-27T23:12:39.068Z,5.78
2023-04-27T23:16:21.864Z,4.75
2023-04-27T23:20:24.024Z,5.32
2023-04-27T23:24:09.103Z,4.78
2023-04-27T23:27:52.548Z,5.72
2023-04-27T23:31:34.891Z,4.43
2023-04-27T23:35:16.972Z,4.07
2023-04-27T23:38:58.862Z,3.42
2023-04-27T23:42:40.735Z,3.40
2023-04-27T23:46:22.777Z,3.20
2023-04-27T23:50:05.163Z,3.22
2023-04-27T23:53:47.192Z,3.67
2023-04-27T23:57:29.086Z,3.50
